Time;durP1;ratioP1;P1;durP2;ratioP2;P2;SDS_P1;SDS_P2;PMS_P1;PMS_P2;Temp;Humidity;BMP_temperature;BMP_pressure;BME280_temperature;BME280_humidity;BME280_pressure;Samples;Min_cycle;Max_cycle;Signal;HPM_P1;HPM_P2
2023/09/08 00:02:16;;;;;;;7.93;6.13;;;;;;;20.05;76.86;101479.06;5186487;28;20052;-80
2023/09/08 00:04:47;;;;;;;9.15;6.30;;;;;;;20.10;77.07;101471.78;5186462;28;20057;-81
2023/09/08 00:07:19;;;;;;;11.20;5.90;;;;;;;19.91;77.90;101476.97;5203505;28;20077;-81
2023/09/08 00:09:50;;;;;;;9.47;6.00;;;;;;;19.89;77.32;101477.97;5202761;28;20030;-82
2023/09/08 00:12:22;;;;;;;6.63;5.37;;;;;;;20.01;77.42;101478.34;5185695;28;20089;-82
2023/09/08 00:14:54;;;;;;;12.13;6.23;;;;;;;19.86;77.72;101489.53;5203580;28;20027;-80
2023/09/08 00:17:25;;;;;;;7.40;5.85;;;;;;;19.80;78.18;101485.38;5203276;28;20088;-81
2023/09/08 00:19:57;;;;;;;8.97;6.37;;;;;;;19.72;78.18;101495.34;5185877;28;20467;-81
2023/09/08 00:22:29;;;;;;;12.32;6.65;;;;;;;19.72;79.14;101490.03;5202790;28;20035;-81
2023/09/08 00:25:00;;;;;;;8.77;5.40;;;;;;;19.66;78.86;101493.81;5185091;28;20506;-81
2023/09/08 00:27:32;;;;;;;13.47;6.43;;;;;;;19.63;79.13;101493.06;5202671;28;20042;-81
2023/09/08 00:30:04;;;;;;;8.57;6.13;;;;;;;19.64;79.28;101498.31;5202155;28;20057;-81
2023/09/08 00:32:35;;;;;;;10.05;6.05;;;;;;;19.49;80.06;101494.47;5202645;28;20296;-81
2023/09/08 00:35:08;;;;;;;8.60;6.03;;;;;;;19.53;78.94;101495.22;5203011;28;20482;-82
2023/09/08 00:37:39;;;;;;;;;;;;;;;19.68;76.19;101491.97;5185929;28;20033;-82
2023/09/08 00:40:11;;;;;;;8.23;6.50;;;;;;;19.36;80.45;101493.22;5202252;28;19914;-81
2023/09/08 00:42:42;;;;;;;9.57;6.73;;;;;;;19.28;81.40;101493.50;5203057;28;20038;-81
2023/09/08 00:45:14;;;;;;;10.10;6.70;;;;;;;19.22;81.68;101490.22;5202736;28;20045;-80
2023/09/08 00:47:45;;;;;;;7.93;6.43;;;;;;;19.30;81.71;101491.69;5184728;28;20034;-78
2023/09/08 00:50:16;;;;;;;6.73;5.83;;;;;;;19.19;82.21;101496.53;5202474;28;20042;-79
2023/09/08 00:52:48;;;;;;;9.70;6.87;;;;;;;19.21;82.39;101486.75;5203307;28;20101;-81
2023/09/08 00:55:20;;;;;;;9.57;6.57;;;;;;;19.07;82.85;101483.75;5202922;28;20027;-81
2023/09/08 00:57:51;;;;;;;9.90;6.37;;;;;;;19.07;83.52;101489.88;5204575;28;20030;-80
2023/09/08 01:00:22;;;;;;;9.70;6.00;;;;;;;19.04;83.20;101482.06;5204175;28;20030;-80
2023/09/08 01:02:54;;;;;;;9.57;7.03;;;;;;;19.07;82.91;101483.75;5203059;28;20041;-80
2023/09/08 01:05:26;;;;;;;7.70;6.30;;;;;;;19.04;83.36;101490.00;5201691;28;20030;-80
2023/09/08 01:07:59;;;;;;;8.20;6.43;;;;;;;18.95;84.36;101485.94;5201979;28;20437;-80
2023/09/08 01:10:31;;;;;;;9.95;6.57;;;;;;;18.88;84.39;101487.06;5202159;28;20038;-80
2023/09/08 01:13:03;;;;;;;9.53;6.80;;;;;;;18.80;84.38;101486.44;5201501;28;20038;-80
2023/09/08 01:15:34;;;;;;;10.90;6.80;;;;;;;18.71;84.56;101478.88;5184156;28;20462;-81
2023/09/08 01:18:06;;;;;;;9.67;7.17;;;;;;;18.65;85.30;101481.72;5202048;28;20524;-82
2023/09/08 01:21:10;;;;;;;8.07;7.27;;;;;;;18.67;85.23;101479.88;5201800;28;20426;-80
2023/09/08 01:23:42;;;;;;;13.07;6.50;;;;;;;18.61;85.93;101474.81;5200848;28;20265;-80
2023/09/08 01:26:20;;;;;;;9.10;6.78;;;;;;;18.58;86.27;101484.56;5201098;28;20058;-81
2023/09/08 01:28:52;;;;;;;11.48;6.75;;;;;;;18.52;86.39;101490.06;5200871;28;20073;-82
2023/09/08 01:31:24;;;;;;;8.32;6.75;;;;;;;18.43;86.62;101482.47;5183412;28;20134;-82
2023/09/08 01:33:56;;;;;;;9.05;6.50;;;;;;;18.45;86.71;101485.94;5200916;28;20482;-82
2023/09/08 01:36:27;;;;;;;9.40;6.47;;;;;;;18.43;86.69;101482.47;5201020;28;20085;-82
2023/09/08 01:38:58;;;;;;;10.03;6.93;;;;;;;18.48;86.38;101484.94;5201039;28;20257;-81
2023/09/08 01:41:31;;;;;;;8.10;6.50;;;;;;;18.41;86.77;101495.72;5201327;28;20038;-82
2023/09/08 01:44:07;;;;;;;12.85;7.55;;;;;;;18.36;87.23;101486.25;5202245;28;20531;-81
2023/09/08 01:46:40;;;;;;;7.72;6.72;;;;;;;18.31;87.43;101478.47;5202346;28;20030;-81
2023/09/08 01:49:12;;;;;;;8.52;6.60;;;;;;;18.27;88.03;101483.91;5199921;28;20022;-81
2023/09/08 01:51:43;;;;;;;8.00;7.10;;;;;;;18.17;88.02;101486.00;5202362;28;20382;-80
2023/09/08 01:54:14;;;;;;;9.53;6.00;;;;;;;18.09;89.04;101480.97;5200823;28;20031;-80
2023/09/08 01:56:46;;;;;;;7.97;6.33;;;;;;;18.09;88.93;101473.03;5184332;28;20113;-81
2023/09/08 01:59:17;;;;;;;10.50;7.60;;;;;;;17.97;89.30;101468.19;5183390;28;20038;-81
2023/09/08 02:01:49;;;;;;;8.63;6.60;;;;;;;17.78;89.99;101475.81;5201291;28;20101;-80
2023/09/08 02:04:20;;;;;;;10.23;6.67;;;;;;;17.72;90.36;101473.34;5200831;28;20027;-80
2023/09/08 02:06:51;;;;;;;10.43;7.07;;;;;;;17.69;90.50;101469.03;5183216;28;20049;-80
2023/09/08 02:09:30;;;;;;;11.63;7.37;;;;;;;17.55;91.74;101476.50;5201851;28;20030;-81
2023/09/08 02:12:03;;;;;;;8.60;6.60;;;;;;;17.65;91.19;101478.81;5202164;28;20073;-81
2023/09/08 02:14:34;;;;;;;10.93;7.15;;;;;;;17.64;91.48;101484.13;5191696;28;20039;-80
2023/09/08 02:17:06;;;;;;;10.30;6.23;;;;;;;17.57;91.77;101477.34;5193049;28;20536;-81
2023/09/08 02:19:37;;;;;;;8.80;7.13;;;;;;;17.53;91.92;101475.69;5202837;28;20057;-81
2023/09/08 02:22:09;;;;;;;8.43;7.30;;;;;;;17.60;91.95;101477.25;5202473;28;20068;-81
2023/09/08 02:24:40;;;;;;;12.03;7.93;;;;;;;17.45;92.38;101479.44;5204489;28;20049;-80
2023/09/08 02:27:12;;;;;;;10.77;7.57;;;;;;;17.42;92.21;101471.63;5186874;28;20441;-81
2023/09/08 02:29:43;;;;;;;8.60;6.63;;;;;;;17.43;92.36;101467.22;5187028;28;20042;-80
2023/09/08 02:32:14;;;;;;;10.50;6.90;;;;;;;17.34;92.31;101464.84;5222305;28;20050;-80
2023/09/08 02:34:48;;;;;;;9.27;7.60;;;;;;;17.27;92.76;101467.66;5221135;28;20049;-81
2023/09/08 02:37:19;;;;;;;9.50;7.15;;;;;;;17.21;93.01;101459.97;5208480;28;20355;-81
2023/09/08 02:39:50;;;;;;;7.90;6.60;;;;;;;17.13;93.29;101469.88;5201831;28;20042;-81
2023/09/08 02:42:22;;;;;;;11.00;7.00;;;;;;;17.13;93.91;101469.88;5202342;28;20037;-80
2023/09/08 02:44:53;;;;;;;9.67;6.50;;;;;;;17.12;93.23;101465.50;5205516;28;20031;-81
2023/09/08 02:47:25;;;;;;;10.30;6.67;;;;;;;17.13;93.39;101472.50;5204436;28;20065;-80
2023/09/08 02:49:57;;;;;;;7.83;6.83;;;;;;;17.12;93.46;101473.41;5184752;28;20031;-80
2023/09/08 02:52:28;;;;;;;9.63;7.53;;;;;;;17.05;93.75;101475.34;5184342;28;20037;-82
2023/09/08 02:54:59;;;;;;;9.50;7.70;;;;;;;16.97;94.17;101465.94;5183897;28;20113;-81
2023/09/08 02:57:31;;;;;;;9.73;7.87;;;;;;;16.92;94.63;101479.22;5201097;28;20030;-81
2023/09/08 03:00:04;;;;;;;11.67;8.40;;;;;;;16.98;94.57;101473.78;5201189;28;20057;-81
2023/09/08 03:02:35;;;;;;;10.30;7.53;;;;;;;16.80;95.17;101474.28;5201029;28;20030;-81
2023/09/08 03:05:07;;;;;;;11.50;7.83;;;;;;;16.76;95.46;101474.38;5201251;28;20096;-81
2023/09/08 03:07:39;;;;;;;9.80;7.87;;;;;;;16.72;95.81;101475.34;5201941;28;20047;-80
2023/09/08 03:10:13;;;;;;;11.83;8.00;;;;;;;16.63;95.70;101473.00;5202364;28;20034;-81
2023/09/08 03:12:44;;;;;;;10.98;7.65;;;;;;;16.68;96.17;101472.84;5172142;28;20492;-81
2023/09/08 03:15:16;;;;;;;12.23;7.17;;;;;;;16.73;96.24;101466.56;5204482;28;20031;-81
2023/09/08 03:17:47;;;;;;;10.33;7.87;;;;;;;16.73;96.06;101463.94;5187521;28;20083;-81
2023/09/08 03:20:19;;;;;;;8.77;7.63;;;;;;;16.69;96.06;101474.56;5204992;28;20037;-81
2023/09/08 03:22:51;;;;;;;9.93;7.95;;;;;;;16.70;95.65;101465.78;5204556;28;20038;-81
2023/09/08 03:25:22;;;;;;;13.48;9.27;;;;;;;16.65;96.01;101468.53;5186792;28;20536;-80
2023/09/08 03:27:54;;;;;;;9.10;8.20;;;;;;;16.62;96.51;101473.88;5187103;28;20121;-81
2023/09/08 03:30:25;;;;;;;13.00;8.37;;;;;;;16.57;96.74;101471.38;5171098;28;20051;-81
2023/09/08 03:32:56;;;;;;;10.90;8.60;;;;;;;16.49;97.07;101468.09;5205348;28;20054;-81
2023/09/08 03:35:28;;;;;;;15.10;8.17;;;;;;;16.49;97.41;101475.13;5189857;28;20050;-80
2023/09/08 03:37:59;;;;;;;10.80;7.90;;;;;;;16.47;97.71;101472.53;5207553;28;20115;-81
2023/09/08 03:40:31;;;;;;;10.37;7.60;;;;;;;16.59;97.50;101463.44;5207246;28;20041;-78
2023/09/08 03:43:02;;;;;;;9.10;7.70;;;;;;;16.48;97.59;101470.75;5189443;28;20054;-81
2023/09/08 03:45:33;;;;;;;13.83;8.10;;;;;;;16.58;97.83;101461.69;5205940;28;20037;-82
2023/09/08 03:48:05;;;;;;;9.53;8.23;;;;;;;16.44;98.12;101463.84;5188626;28;20063;-80
2023/09/08 03:50:37;;;;;;;8.77;7.85;;;;;;;16.36;98.54;101464.91;5189127;28;20046;-80
2023/09/08 03:53:10;;;;;;;12.43;9.13;;;;;;;16.44;98.73;101456.81;5206469;28;20030;-81
2023/09/08 03:55:41;;;;;;;;;;;;;;;16.48;96.76;101455.81;5205967;28;20038;-80
2023/09/08 03:58:13;;;;;;;9.90;8.32;;;;;;;16.39;97.79;101454.31;5205351;28;19913;-82
2023/09/08 04:00:44;;;;;;;10.10;8.97;;;;;;;16.44;98.33;101461.19;5186870;28;20481;-82
2023/09/08 04:03:16;;;;;;;16.23;9.27;;;;;;;16.52;98.09;101451.38;5203748;28;20422;-82
2023/09/08 04:05:47;;;;;;;12.57;8.83;;;;;;;16.36;98.59;101458.78;5204493;28;20080;-82
2023/09/08 04:08:18;;;;;;;11.80;8.97;;;;;;;16.35;98.86;101449.16;5203930;28;20034;-80
2023/09/08 04:10:50;;;;;;;13.40;8.93;;;;;;;16.40;99.23;101450.78;5204409;28;20034;-81
2023/09/08 04:13:21;;;;;;;11.27;9.37;;;;;;;16.29;99.55;101450.16;5205677;28;20038;-81
2023/09/08 04:15:52;;;;;;;12.63;8.57;;;;;;;16.31;99.96;101453.66;5205962;28;20042;-79
2023/09/08 04:18:24;;;;;;;10.00;8.50;;;;;;;16.30;99.88;101451.06;5208525;28;20034;-82
2023/09/08 04:20:55;;;;;;;10.27;9.17;;;;;;;16.40;100.00;101455.16;5205740;28;20023;-81
2023/09/08 04:23:27;;;;;;;11.20;8.60;;;;;;;16.41;100.00;101451.63;5203080;28;20034;-81
2023/09/08 04:25:58;;;;;;;11.00;9.23;;;;;;;16.33;100.00;101440.47;5185997;28;20053;-81
2023/09/08 04:28:30;;;;;;;11.20;8.70;;;;;;;16.30;100.00;101441.38;5203138;28;20022;-82
2023/09/08 04:31:01;;;;;;;11.07;7.97;;;;;;;16.40;100.00;101442.88;5202952;28;20078;-81
2023/09/08 04:33:32;;;;;;;13.23;8.07;;;;;;;16.39;100.00;101442.94;5202621;28;20574;-82
2023/09/08 04:36:04;;;;;;;11.97;8.57;;;;;;;16.39;100.00;101443.78;5202616;28;20035;-82
2023/09/08 04:38:35;;;;;;;10.43;8.77;;;;;;;16.38;100.00;101443.81;5202411;28;20066;-81
2023/09/08 04:41:07;;;;;;;12.40;8.60;;;;;;;16.43;100.00;101449.81;5202606;28;20030;-81
2023/09/08 04:43:39;;;;;;;10.35;7.78;;;;;;;16.43;100.00;101451.59;5203572;28;20034;-82
2023/09/08 04:46:10;;;;;;;11.10;8.40;;;;;;;16.31;100.00;101448.38;5203158;28;20041;-82
2023/09/08 04:48:42;;;;;;;15.33;9.50;;;;;;;16.43;100.00;101446.34;5203642;28;20274;-81
2023/09/08 04:51:13;;;;;;;11.10;8.67;;;;;;;16.36;100.00;101446.50;5185881;28;20121;-82
2023/09/08 04:53:44;;;;;;;11.30;8.43;;;;;;;16.35;100.00;101450.00;5202578;28;20022;-80
2023/09/08 04:56:16;;;;;;;14.33;8.80;;;;;;;16.22;100.00;101446.84;5203251;28;20057;-77
2023/09/08 04:58:47;;;;;;;11.90;9.30;;;;;;;16.36;100.00;101448.28;5207495;28;20100;-81
2023/09/08 05:01:19;;;;;;;13.17;8.53;;;;;;;16.36;100.00;101459.66;5207278;28;20039;-81
2023/09/08 05:03:50;;;;;;;9.40;8.40;;;;;;;16.37;100.00;101458.75;5208046;28;20031;-81
2023/09/08 05:06:21;;;;;;;12.17;8.23;;;;;;;16.40;100.00;101460.44;5205592;28;20035;-81
2023/09/08 05:08:53;;;;;;;12.40;8.63;;;;;;;16.44;100.00;101462.09;5203710;28;20081;-81
2023/09/08 05:11:25;;;;;;;10.40;9.37;;;;;;;16.41;100.00;101463.00;5185871;28;20081;-80
2023/09/08 05:13:57;;;;;;;;;;;;;;;16.41;99.35;101465.66;5203152;28;20027;-81
2023/09/08 05:16:46;;;;;;;8.90;8.00;;;;;;;16.41;100.00;101460.38;5185675;28;19914;-80
2023/09/08 05:19:17;;;;;;;10.95;8.70;;;;;;;16.45;100.00;101460.31;5203143;28;20038;-80
2023/09/08 05:21:51;;;;;;;15.60;9.67;;;;;;;16.50;100.00;101466.31;5203172;28;20034;-81
2023/09/08 05:24:25;;;;;;;14.32;10.48;;;;;;;16.51;100.00;101466.25;5203469;28;20022;-79
2023/09/08 05:26:57;;;;;;;10.05;8.40;;;;;;;16.53;100.00;101461.81;5171295;28;20044;-80
2023/09/08 05:29:28;;;;;;;9.67;8.67;;;;;;;16.52;100.00;101460.09;5201890;28;20034;-81
2023/09/08 05:31:59;;;;;;;13.27;9.20;;;;;;;16.58;100.00;101461.69;5202961;28;20058;-78
2023/09/08 05:34:31;;;;;;;12.63;9.40;;;;;;;16.64;100.00;101460.69;5187347;28;20038;-82
2023/09/08 05:37:02;;;;;;;13.30;10.40;;;;;;;16.71;100.00;101468.38;5202382;28;20026;-83
2023/09/08 05:39:34;;;;;;;13.97;9.83;;;;;;;16.73;100.00;101466.56;5203259;28;20030;-83
2023/09/08 05:42:05;;;;;;;12.67;10.03;;;;;;;16.83;100.00;101474.22;5202573;28;20038;-83
2023/09/08 05:44:36;;;;;;;15.23;10.03;;;;;;;16.81;100.00;101470.72;5203606;28;20038;-84
2023/09/08 05:47:08;;;;;;;12.70;10.30;;;;;;;16.86;100.00;101477.66;5202290;28;20100;-83
2023/09/08 05:49:39;;;;;;;12.03;9.43;;;;;;;16.92;99.64;101480.09;5186248;28;20101;-84
2023/09/08 05:52:11;;;;;;;14.90;10.40;;;;;;;16.95;99.10;101476.50;5205468;28;20046;-84
2023/09/08 05:54:42;;;;;;;14.87;10.60;;;;;;;17.05;98.16;101483.25;5206484;28;20041;-84
2023/09/08 05:57:13;;;;;;;13.27;9.90;;;;;;;17.12;97.52;101484.78;5172175;28;20037;-84
2023/09/08 05:59:45;;;;;;;13.23;10.07;;;;;;;17.23;96.79;101481.84;5211741;28;20041;-83
2023/09/08 06:02:16;;;;;;;14.03;9.73;;;;;;;17.26;97.06;101476.50;5218291;28;20034;-84
2023/09/08 06:04:48;;;;;;;21.77;10.40;;;;;;;17.34;96.43;101478.91;5207252;28;20107;-83
2023/09/08 06:07:19;;;;;;;14.10;10.77;;;;;;;17.40;96.45;101481.34;5223337;28;20014;-83
2023/09/08 06:09:50;;;;;;;15.27;11.17;;;;;;;17.48;95.46;101481.09;5198726;28;21033;-83
2023/09/08 06:12:22;;;;;;;13.37;9.63;;;;;;;17.57;95.18;101488.75;5207352;28;20367;-82
2023/09/08 06:14:53;;;;;;;17.37;10.80;;;;;;;17.67;94.18;101486.69;5204622;28;20034;-83
2023/09/08 06:17:25;;;;;;;13.37;10.60;;;;;;;17.78;93.59;101489.84;5206388;28;20053;-84
2023/09/08 06:19:56;;;;;;;13.40;10.13;;;;;;;17.83;92.79;101492.34;5207469;28;20094;-84
2023/09/08 06:22:27;;;;;;;17.17;9.90;;;;;;;17.95;92.41;101493.75;5206972;28;20031;-84
2023/09/08 06:24:59;;;;;;;12.80;10.50;;;;;;;18.06;91.63;101494.25;5184972;28;20030;-84
2023/09/08 06:27:30;;;;;;;12.40;10.13;;;;;;;18.13;91.82;101495.78;5201564;28;20042;-84
2023/09/08 06:30:02;;;;;;;15.40;10.30;;;;;;;18.25;90.63;101498.94;5204545;28;20030;-85
2023/09/08 06:32:33;;;;;;;12.23;9.73;;;;;;;18.34;89.71;101499.50;5205353;28;20034;-86
2023/09/08 06:35:05;;;;;;;19.10;10.60;;;;;;;18.44;89.99;101497.41;5201683;28;20031;-85
2023/09/08 06:37:37;;;;;;;13.20;9.40;;;;;;;18.53;90.03;101498.84;5201915;28;20034;-84
2023/09/08 06:40:09;;;;;;;16.17;10.13;;;;;;;18.59;90.14;101493.34;5200965;28;20042;-85
2023/09/08 06:42:40;;;;;;;14.37;9.67;;;;;;;18.69;89.47;101496.53;5201450;28;20089;-84
2023/09/08 06:45:13;;;;;;;13.33;8.83;;;;;;;18.76;88.90;101501.53;5203559;28;20094;-85
2023/09/08 06:47:44;;;;;;;11.98;8.82;;;;;;;18.89;87.68;101501.16;5207230;28;20039;-84
2023/09/08 06:50:16;;;;;;;14.77;10.40;;;;;;;19.00;87.25;101503.38;5206226;28;20374;-85
2023/09/08 06:52:49;;;;;;;14.00;9.67;;;;;;;19.11;86.47;101507.38;5189608;28;20120;-84
2023/09/08 06:55:20;;;;;;;12.65;8.88;;;;;;;19.22;86.06;101514.03;5189386;28;20109;-85
2023/09/08 06:57:52;;;;;;;15.33;9.10;;;;;;;19.35;85.90;101514.41;5193339;28;20102;-83
2023/09/08 07:00:23;;;;;;;16.40;9.43;;;;;;;19.49;85.25;101517.41;5193811;28;20077;-84
2023/09/08 07:02:55;;;;;;;13.53;8.90;;;;;;;19.58;84.59;101518.84;5220184;28;20053;-85
2023/09/08 07:05:26;;;;;;;12.53;9.17;;;;;;;19.72;83.29;101508.56;5211781;28;20037;-83
2023/09/08 07:07:57;;;;;;;11.80;8.70;;;;;;;19.83;83.54;101513.47;5210829;28;20500;-84
2023/09/08 07:10:29;;;;;;;9.97;8.40;;;;;;;19.93;82.31;101509.53;5209647;28;20026;-84
2023/09/08 07:13:00;;;;;;;16.50;10.03;;;;;;;20.07;82.47;101518.69;5208585;28;20116;-85
2023/09/08 07:15:31;;;;;;;14.17;9.10;;;;;;;20.17;81.27;101515.63;5190958;28;20037;-84
2023/09/08 07:18:03;;;;;;;12.40;7.83;;;;;;;20.28;81.56;101503.72;5187305;28;20108;-84
2023/09/08 07:20:35;;;;;;;11.18;8.60;;;;;;;20.39;80.46;101510.25;5203023;28;20030;-84
2023/09/08 07:23:06;;;;;;;12.75;8.13;;;;;;;20.55;80.58;101517.56;5204538;28;20398;-84
2023/09/08 07:25:38;;;;;;;10.32;7.45;;;;;;;20.65;79.92;101512.75;5203255;28;20044;-80
2023/09/08 07:28:09;;;;;;;10.87;7.57;;;;;;;20.81;79.43;101520.91;5203641;28;20034;-84
2023/09/08 07:30:41;;;;;;;11.97;7.23;;;;;;;20.90;79.20;101517.84;5186108;28;20450;-84
2023/09/08 07:33:12;;;;;;;13.27;7.93;;;;;;;21.01;77.73;101525.31;5202713;28;20034;-84
2023/09/08 07:35:43;;;;;;;13.93;7.57;;;;;;;21.19;77.15;101520.94;5203496;28;20462;-84
2023/09/08 07:38:15;;;;;;;11.13;8.07;;;;;;;21.30;76.08;101527.50;5205039;28;20108;-83
2023/09/08 07:40:46;;;;;;;7.80;7.00;;;;;;;21.40;76.63;101522.63;5186396;28;20041;-83
2023/09/08 07:43:18;;;;;;;9.97;7.33;;;;;;;21.47;75.80;101523.19;5204854;28;20080;-84
2023/09/08 07:45:49;;;;;;;10.83;7.73;;;;;;;21.63;74.74;101518.91;5186480;28;20076;-84
2023/09/08 07:48:20;;;;;;;10.43;7.20;;;;;;;21.83;74.87;101519.75;5186625;28;20038;-85
2023/09/08 07:50:52;;;;;;;10.37;7.60;;;;;;;21.88;74.30;101523.06;5203563;28;20122;-84
2023/09/08 07:53:23;;;;;;;8.13;6.53;;;;;;;22.01;73.22;101516.22;5204717;28;20031;-85
2023/09/08 07:55:54;;;;;;;12.30;6.30;;;;;;;22.07;72.94;101520.34;5186754;28;20034;-84
2023/09/08 07:58:26;;;;;;;11.47;7.80;;;;;;;22.28;73.25;101517.56;5187195;28;20027;-84
2023/09/08 08:00:57;;;;;;;10.03;6.50;;;;;;;22.39;74.17;101510.81;5187752;28;20053;-84
2023/09/08 08:03:29;;;;;;;9.10;6.67;;;;;;;22.56;71.04;101504.63;5204751;28;20034;-83
2023/09/08 08:06:00;;;;;;;8.97;6.80;;;;;;;22.67;71.89;101513.81;5187595;28;20038;-84
2023/09/08 08:08:32;;;;;;;8.13;6.57;;;;;;;22.74;70.83;101512.56;5191014;28;20154;-83
2023/09/08 08:11:15;;;;;;;7.45;6.55;;;;;;;22.83;70.58;101506.78;5192719;28;20065;-84
2023/09/08 08:13:47;;;;;;;11.02;6.13;;;;;;;22.94;69.71;101512.38;5208635;28;20374;-84
2023/09/08 08:16:20;;;;;;;11.17;6.53;;;;;;;23.13;69.83;101514.06;5209888;28;20051;-85
2023/09/08 08:18:51;;;;;;;7.25;5.43;;;;;;;23.27;69.66;101510.66;5207963;28;20466;-85
2023/09/08 08:21:23;;;;;;;8.20;5.90;;;;;;;23.30;66.85;101514.00;5207161;28;20069;-84
2023/09/08 08:23:54;;;;;;;10.73;7.17;;;;;;;23.42;67.04;101525.78;5207695;28;20038;-83
2023/09/08 08:26:28;;;;;;;9.03;6.23;;;;;;;23.53;67.32;101517.19;5190962;28;20030;-86
2023/09/08 08:28:59;;;;;;;11.90;6.63;;;;;;;23.65;66.06;101519.19;5204847;28;20030;-86
2023/09/08 08:31:32;;;;;;;9.00;6.17;;;;;;;23.78;65.67;101521.13;5204687;28;20049;-85
2023/09/08 08:34:04;;;;;;;15.00;6.25;;;;;;;23.89;66.76;101521.41;5171045;28;20031;-83
2023/09/08 08:36:36;;;;;;;11.75;6.85;;;;;;;23.98;64.03;101526.22;5205414;28;20023;-84
2023/09/08 08:39:07;;;;;;;10.70;6.27;;;;;;;24.12;64.21;101524.59;5190187;28;20050;-85
2023/09/08 08:41:40;;;;;;;9.03;5.70;;;;;;;24.27;66.82;101523.66;5210286;28;20030;-85
2023/09/08 08:44:13;;;;;;;8.95;6.32;;;;;;;24.34;64.51;101522.38;5209119;28;20034;-83
2023/09/08 08:46:46;;;;;;;10.23;5.90;;;;;;;24.57;65.23;101525.50;5208399;28;20038;-83
2023/09/08 08:49:19;;;;;;;13.02;5.53;;;;;;;24.61;62.44;101519.00;5205393;28;20064;-84
2023/09/08 08:51:52;;;;;;;8.18;5.80;;;;;;;24.76;62.58;101522.56;5187423;28;20033;-83
2023/09/08 08:54:24;;;;;;;12.63;5.47;;;;;;;24.79;64.42;101518.84;5202976;28;20038;-86
2023/09/08 08:56:56;;;;;;;9.85;5.63;;;;;;;25.03;63.72;101519.16;5204170;28;20031;-85
2023/09/08 08:59:28;;;;;;;;;;;;;;;25.17;62.68;101507.63;5204310;28;20487;-85
2023/09/08 09:02:01;;;;;;;9.77;5.03;;;;;;;25.33;59.56;101511.06;5188806;28;19914;-83
2023/09/08 09:04:33;;;;;;;9.52;5.43;;;;;;;25.83;57.21;101514.09;5205381;28;20100;-84
2023/09/08 09:07:06;;;;;;;6.35;5.20;;;;;;;26.55;55.34;101511.91;5203343;28;20038;-85
2023/09/08 09:09:40;;;;;;;6.95;5.13;;;;;;;27.09;53.66;101521.56;5202096;28;20497;-85
2023/09/08 09:12:11;;;;;;;7.60;5.32;;;;;;;27.73;52.11;101523.25;5171887;28;20430;-85
2023/09/08 09:14:47;;;;;;;;;;;;;;;28.98;51.90;101519.16;5204000;28;20038;-86
2023/09/08 09:17:18;;;;;;;6.78;4.82;;;;;;;29.01;47.41;101524.28;5203535;28;20028;-85
2023/09/08 09:19:49;;;;;;;;;;;;;;;30.14;50.71;101520.50;5185521;28;20121;-85
2023/09/08 09:22:24;;;;;;;8.13;4.85;;;;;;;29.88;45.57;101518.16;5203941;28;19910;-85
2023/09/08 09:24:57;;;;;;;8.73;5.55;;;;;;;29.99;45.00;101517.28;5202666;28;20038;-86
2023/09/08 09:27:30;;;;;;;12.73;6.20;;;;;;;30.35;44.80;101516.00;5203170;28;20030;-84
2023/09/08 09:30:03;;;;;;;11.25;6.35;;;;;;;30.52;43.67;101513.72;5202065;28;20043;-85
2023/09/08 09:32:35;;;;;;;6.28;4.82;;;;;;;31.06;42.60;101514.47;5203502;28;20026;-85
2023/09/08 09:35:07;;;;;;;6.97;5.13;;;;;;;31.35;42.81;101521.75;5185043;28;20034;-84
2023/09/08 09:37:41;;;;;;;8.23;6.00;;;;;;;31.62;41.26;101516.63;5202810;28;20033;-83
2023/09/08 09:40:12;;;;;;;6.28;4.78;;;;;;;32.01;41.47;101507.69;5185213;28;20037;-84
2023/09/08 09:42:43;;;;;;;11.60;5.63;;;;;;;32.25;40.92;101518.06;5186528;28;20030;-86
2023/09/08 09:45:15;;;;;;;7.45;5.20;;;;;;;32.28;39.00;101515.09;5184791;28;20502;-85
2023/09/08 09:47:47;;;;;;;6.35;5.10;;;;;;;32.38;38.88;101511.50;5202752;28;20101;-85
2023/09/08 09:50:35;;;;;;;8.18;5.43;;;;;;;32.98;40.00;101516.63;5202194;28;20046;-83
2023/09/08 09:53:10;;;;;;;8.32;5.18;;;;;;;33.01;39.55;101514.47;5202609;28;20034;-84
2023/09/08 09:55:44;;;;;;;8.05;5.88;;;;;;;33.49;38.96;101512.53;5203095;28;20029;-84
2023/09/08 09:58:15;;;;;;;8.38;5.20;;;;;;;33.53;38.53;101508.50;5205625;28;20465;-83
2023/09/08 10:00:49;;;;;;;7.90;5.20;;;;;;;34.26;38.66;101512.06;5223651;28;20191;-83
2023/09/08 10:03:23;;;;;;;9.50;5.50;;;;;;;34.43;35.65;101507.63;5224530;28;20031;-85
2023/09/08 10:05:54;;;;;;;6.47;5.40;;;;;;;34.48;35.51;101505.28;5222897;28;20011;-84
2023/09/08 10:08:28;;;;;;;5.82;4.95;;;;;;;35.02;35.15;101500.53;5218060;28;20061;-85
2023/09/08 10:11:02;;;;;;;8.40;5.50;;;;;;;35.06;34.64;101509.16;5194181;28;20432;-84
2023/09/08 10:13:45;;;;;;;8.25;5.30;;;;;;;35.22;34.68;101508.38;5209142;28;20041;-83
2023/09/08 10:16:19;;;;;;;7.25;5.45;;;;;;;35.27;33.43;101508.75;5210574;28;20046;-84
2023/09/08 10:18:52;;;;;;;10.63;6.10;;;;;;;35.21;32.54;101512.09;5209509;28;20443;-85
2023/09/08 10:21:26;;;;;;;9.52;5.28;;;;;;;34.95;32.83;101510.31;5206771;28;20056;-84
2023/09/08 10:24:12;;;;;;;9.32;5.53;;;;;;;35.33;33.69;101512.69;5208489;28;20026;-84
2023/09/08 10:26:46;;;;;;;9.23;5.00;;;;;;;35.76;33.54;101503.47;5207952;28;20436;-85
2023/09/08 10:29:19;;;;;;;9.63;5.38;;;;;;;35.50;31.74;101509.00;5207953;28;20102;-87
2023/09/08 10:31:50;;;;;;;8.23;5.25;;;;;;;35.84;32.08;101512.63;5207227;28;20047;-85
2023/09/08 10:34:24;;;;;;;7.70;5.50;;;;;;;36.48;31.96;101508.22;5206341;28;20041;-85
2023/09/08 10:36:56;;;;;;;7.40;5.78;;;;;;;36.62;31.67;101503.06;5207913;28;20038;-86
2023/09/08 10:39:31;;;;;;;12.95;5.55;;;;;;;36.54;32.35;101509.38;5214112;28;20367;-84
2023/09/08 10:42:20;;;;;;;8.80;5.07;;;;;;;37.90;30.60;101518.25;5214623;28;20034;-86
2023/09/08 10:45:03;;;;;;;7.63;5.70;;;;;;;37.53;30.93;101500.81;5208746;28;20105;-85
2023/09/08 10:47:56;;;;;;;8.57;6.43;;;;;;;38.37;28.92;101500.84;5191265;28;20026;-85
2023/09/08 10:50:33;;;;;;;8.82;6.18;;;;;;;37.54;29.54;101497.91;5209112;28;20045;-86
2023/09/08 10:53:16;;;;;;;9.05;5.95;;;;;;;38.84;30.01;101493.34;5191348;28;20035;-85
2023/09/08 10:55:51;;;;;;;7.22;5.88;;;;;;;38.57;28.87;101490.22;5187908;28;20065;-85
2023/09/08 10:58:35;;;;;;;6.22;4.95;;;;;;;39.14;29.27;101498.75;5207858;28;20026;-85
2023/09/08 11:01:07;;;;;;;11.02;5.65;;;;;;;39.49;26.77;101499.78;5207953;28;20467;-84
2023/09/08 11:03:39;;;;;;;5.63;5.03;;;;;;;40.05;28.24;101501.81;5207798;28;20038;-85
2023/09/08 11:06:11;;;;;;;8.25;5.57;;;;;;;40.29;25.65;101496.97;5188907;28;20034;-85
2023/09/08 11:08:44;;;;;;;7.80;5.47;;;;;;;40.62;25.50;101499.06;5188254;28;20240;-85
2023/09/08 11:11:16;;;;;;;8.05;5.63;;;;;;;40.58;26.66;101501.38;5207285;28;20110;-87
2023/09/08 11:13:47;;;;;;;7.68;5.40;;;;;;;41.13;24.91;101490.47;5189634;28;20034;-85
2023/09/08 11:16:23;;;;;;;7.57;5.80;;;;;;;41.40;24.76;101492.47;5206769;28;20030;-86
2023/09/08 11:18:54;;;;;;;7.28;5.90;;;;;;;41.19;24.72;101486.09;5205908;28;20038;-86
2023/09/08 11:21:26;;;;;;;6.57;5.45;;;;;;;41.21;25.71;101483.16;5205636;28;20484;-85
2023/09/08 11:23:57;;;;;;;10.35;5.53;;;;;;;41.86;25.50;101487.09;5204252;28;20041;-86
2023/09/08 11:26:29;;;;;;;8.23;6.53;;;;;;;42.29;23.52;101490.44;5205874;28;20042;-84
2023/09/08 11:29:01;;;;;;;6.05;5.40;;;;;;;42.35;23.62;101486.84;5206726;28;20125;-86
2023/09/08 11:31:32;;;;;;;9.30;6.10;;;;;;;42.80;23.78;101487.75;5207639;28;20058;-87
2023/09/08 11:34:05;;;;;;;13.60;6.90;;;;;;;42.76;24.52;101489.25;5207387;28;20034;-85
2023/09/08 11:36:36;;;;;;;9.00;5.18;;;;;;;42.79;23.79;101483.31;5208381;28;20034;-86
2023/09/08 11:39:10;;;;;;;7.90;5.30;;;;;;;43.25;23.53;101483.31;5209477;28;20069;-85
2023/09/08 11:41:41;;;;;;;10.30;5.45;;;;;;;42.96;23.48;101469.16;5225957;28;20046;-85
2023/09/08 11:44:18;;;;;;;10.15;5.82;;;;;;;43.62;22.48;101478.03;5202146;28;20069;-85
2023/09/08 11:46:49;;;;;;;9.05;5.72;;;;;;;43.21;22.15;101479.34;5215117;28;20033;-86